sensor_id;sensor_type;location;lat;lon;timestamp;pressure;altitude;pressure_sealevel;temperature;humidity
56414;BME280;42318;48.452;19.526;2023-10-13T00:02:30;98482.25;;;20.64;62.02
56414;BME280;42318;48.452;19.526;2023-10-13T00:05:31;98483.91;;;20.65;61.94
56414;BME280;42318;48.452;19.526;2023-10-13T00:08:32;98470.53;;;20.63;61.94
56414;BME280;42318;48.452;19.526;2023-10-13T00:11:32;98470.28;;;20.65;61.99
56414;BME280;42318;48.452;19.526;2023-10-13T00:14:33;98471.88;;;20.61;61.82
56414;BME280;42318;48.452;19.526;2023-10-13T00:17:33;98483.91;;;20.65;61.80
56414;BME280;42318;48.452;19.526;2023-10-13T00:20:41;98482.00;;;20.65;61.56
56414;BME280;42318;48.452;19.526;2023-10-13T00:23:49;98489.34;;;20.65;61.87
56414;BME280;42318;48.452;19.526;2023-10-13T00:26:53;98488.50;;;20.64;61.96
56414;BME280;42318;48.452;19.526;2023-10-13T00:29:59;98485.78;;;20.64;61.72
56414;BME280;42318;48.452;19.526;2023-10-13T00:33:19;98491.50;;;20.63;61.75
56414;BME280;42318;48.452;19.526;2023-10-13T00:36:23;98488.22;;;20.61;62.01
56414;BME280;42318;48.452;19.526;2023-10-13T00:39:24;98488.22;;;20.61;61.89
56414;BME280;42318;48.452;19.526;2023-10-13T00:42:24;98484.41;;;20.62;61.93
56414;BME280;42318;48.452;19.526;2023-10-13T00:45:34;98483.59;;;20.61;61.83
56414;BME280;42318;48.452;19.526;2023-10-13T00:48:37;98490.69;;;20.62;61.68
56414;BME280;42318;48.452;19.526;2023-10-13T00:51:52;98501.56;;;20.62;61.54
56414;BME280;42318;48.452;19.526;2023-10-13T00:54:53;98496.13;;;20.62;62.14
56414;BME280;42318;48.452;19.526;2023-10-13T00:57:55;98482.25;;;20.64;61.86
56414;BME280;42318;48.452;19.526;2023-10-13T01:00:58;98487.13;;;20.62;61.83
56414;BME280;42318;48.452;19.526;2023-10-13T01:04:18;98481.69;;;20.62;62.07
56414;BME280;42318;48.452;19.526;2023-10-13T01:07:19;98477.59;;;20.59;61.76
56414;BME280;42318;48.452;19.526;2023-10-13T01:10:23;98486.88;;;20.63;61.68
56414;BME280;42318;48.452;19.526;2023-10-13T01:13:33;98476.81;;;20.64;61.77
56414;BME280;42318;48.452;19.526;2023-10-13T01:16:39;98489.59;;;20.63;61.73
56414;BME280;42318;48.452;19.526;2023-10-13T01:19:40;98498.03;;;20.62;61.68
56414;BME280;42318;48.452;19.526;2023-10-13T01:22:43;98489.84;;;20.62;61.63
56414;BME280;42318;48.452;19.526;2023-10-13T01:25:45;98482.25;;;20.64;61.60
56414;BME280;42318;48.452;19.526;2023-10-13T01:28:46;98484.41;;;20.62;61.51
56414;BME280;42318;48.452;19.526;2023-10-13T01:31:47;98478.94;;;20.57;62.00
56414;BME280;42318;48.452;19.526;2023-10-13T01:34:48;98481.41;;;20.58;61.84
56414;BME280;42318;48.452;19.526;2023-10-13T01:37:49;98486.06;;;20.63;61.82
56414;BME280;42318;48.452;19.526;2023-10-13T01:40:50;98487.13;;;20.62;61.61
56414;BME280;42318;48.452;19.526;2023-10-13T01:43:52;98490.69;;;20.62;61.51
56414;BME280;42318;48.452;19.526;2023-10-13T01:46:52;98490.69;;;20.62;61.86
56414;BME280;42318;48.452;19.526;2023-10-13T01:49:53;98502.38;;;20.63;61.84
56414;BME280;42318;48.452;19.526;2023-10-13T01:52:54;98493.66;;;20.61;61.76
56414;BME280;42318;48.452;19.526;2023-10-13T01:56:11;98493.66;;;20.61;61.58
56414;BME280;42318;48.452;19.526;2023-10-13T01:59:12;98497.19;;;20.61;61.57
56414;BME280;42318;48.452;19.526;2023-10-13T02:02:13;98495.31;;;20.62;61.91
56414;BME280;42318;48.452;19.526;2023-10-13T02:05:14;98494.47;;;20.61;61.68
56414;BME280;42318;48.452;19.526;2023-10-13T02:08:22;98503.47;;;20.62;61.55
56414;BME280;42318;48.452;19.526;2023-10-13T02:11:25;98496.38;;;20.61;61.72
56414;BME280;42318;48.452;19.526;2023-10-13T02:14:26;98496.38;;;20.61;61.72
56414;BME280;42318;48.452;19.526;2023-10-13T02:17:26;98489.03;;;20.61;61.58
56414;BME280;42318;48.452;19.526;2023-10-13T02:20:27;98474.31;;;20.57;61.64
56414;BME280;42318;48.452;19.526;2023-10-13T02:23:42;98469.97;;;20.61;62.02
56414;BME280;42318;48.452;19.526;2023-10-13T02:26:45;98466.97;;;20.58;61.67
56414;BME280;42318;48.452;19.526;2023-10-13T02:29:49;98471.88;;;20.61;61.79
56414;BME280;42318;48.452;19.526;2023-10-13T02:32:49;98470.25;;;20.60;61.73
56414;BME280;42318;48.452;19.526;2023-10-13T02:35:50;98469.41;;;20.59;61.71
56414;BME280;42318;48.452;19.526;2023-10-13T02:38:53;98463.72;;;20.61;61.77
56414;BME280;42318;48.452;19.526;2023-10-13T02:41:58;98468.59;;;20.59;61.82
56414;BME280;42318;48.452;19.526;2023-10-13T02:44:58;98475.94;;;20.58;61.74
56414;BME280;42318;48.452;19.526;2023-10-13T02:47:59;98484.13;;;20.58;61.60
56414;BME280;42318;48.452;19.526;2023-10-13T02:51:17;98484.13;;;20.58;61.60
56414;BME280;42318;48.452;19.526;2023-10-13T02:54:19;98487.66;;;20.59;61.78
56414;BME280;42318;48.452;19.526;2023-10-13T02:57:20;98486.00;;;20.58;61.92
56414;BME280;42318;48.452;19.526;2023-10-13T03:00:23;98501.28;;;20.59;61.61
56414;BME280;42318;48.452;19.526;2023-10-13T03:03:23;98504.00;;;20.59;61.75
56414;BME280;42318;48.452;19.526;2023-10-13T03:06:25;98506.72;;;20.59;61.99
56414;BME280;42318;48.452;19.526;2023-10-13T03:09:32;98498.50;;;20.54;61.88
56414;BME280;42318;48.452;19.526;2023-10-13T03:12:39;98498.53;;;20.59;61.91
56414;BME280;42318;48.452;19.526;2023-10-13T03:15:39;98493.88;;;20.54;61.95
56414;BME280;42318;48.452;19.526;2023-10-13T03:18:40;98505.06;;;20.58;62.36
56414;BME280;42318;48.452;19.526;2023-10-13T03:21:41;98504.00;;;20.59;61.71
56414;BME280;42318;48.452;19.526;2023-10-13T03:24:45;98505.06;;;20.58;62.07
56414;BME280;42318;48.452;19.526;2023-10-13T03:27:46;98501.53;;;20.57;61.61
56414;BME280;42318;48.452;19.526;2023-10-13T03:30:52;98496.91;;;20.58;61.89
56414;BME280;42318;48.452;19.526;2023-10-13T03:33:53;98486.53;;;20.55;61.94
56414;BME280;42318;48.452;19.526;2023-10-13T03:36:59;98489.56;;;20.58;61.86
56414;BME280;42318;48.452;19.526;2023-10-13T03:40:12;98481.41;;;20.58;61.90
56414;BME280;42318;48.452;19.526;2023-10-13T03:43:22;98487.91;;;20.57;61.54
56414;BME280;42318;48.452;19.526;2023-10-13T03:46:23;98491.47;;;20.58;61.76
56414;BME280;42318;48.452;19.526;2023-10-13T03:49:24;98495.81;;;20.59;61.96
56414;BME280;42318;48.452;19.526;2023-10-13T03:52:25;98499.63;;;20.58;61.72
56414;BME280;42318;48.452;19.526;2023-10-13T03:55:27;98486.00;;;20.58;61.90
56414;BME280;42318;48.452;19.526;2023-10-13T03:58:28;98492.53;;;20.57;61.91
56414;BME280;42318;48.452;19.526;2023-10-13T04:01:30;98491.47;;;20.58;61.71
56414;BME280;42318;48.452;19.526;2023-10-13T04:04:49;98486.53;;;20.55;62.20
56414;BME280;42318;48.452;19.526;2023-10-13T04:07:53;98487.91;;;20.57;61.75
56414;BME280;42318;48.452;19.526;2023-10-13T04:11:12;98491.72;;;20.56;61.80
56414;BME280;42318;48.452;19.526;2023-10-13T04:14:36;98494.19;;;20.58;61.76
56414;BME280;42318;48.452;19.526;2023-10-13T04:17:55;98477.81;;;20.53;61.81
56414;BME280;42318;48.452;19.526;2023-10-13T04:20:58;98477.28;;;20.56;61.95
56414;BME280;42318;48.452;19.526;2023-10-13T04:24:11;98482.44;;;20.52;61.79
56414;BME280;42318;48.452;19.526;2023-10-13T04:27:18;98489.00;;;20.56;61.84
56414;BME280;42318;48.452;19.526;2023-10-13T04:30:36;98489.00;;;20.56;62.15
56414;BME280;42318;48.452;19.526;2023-10-13T04:33:56;98475.34;;;20.51;61.86
56414;BME280;42318;48.452;19.526;2023-10-13T04:37:02;98476.72;;;20.54;61.97
56414;BME280;42318;48.452;19.526;2023-10-13T04:40:32;98492.81;;;20.55;61.88
56414;BME280;42318;48.452;19.526;2023-10-13T04:43:35;98491.69;;;20.51;62.02
56414;BME280;42318;48.452;19.526;2023-10-13T04:46:55;98500.97;;;20.55;61.72
56414;BME280;42318;48.452;19.526;2023-10-13T04:50:02;98492.81;;;20.55;61.78
56414;BME280;42318;48.452;19.526;2023-10-13T04:53:22;98500.97;;;20.55;61.52
56414;BME280;42318;48.452;19.526;2023-10-13T04:56:30;98500.66;;;20.52;61.89
56414;BME280;42318;48.452;19.526;2023-10-13T04:59:50;98500.97;;;20.55;61.87
56414;BME280;42318;48.452;19.526;2023-10-13T05:02:57;98504.50;;;20.56;61.96
56414;BME280;42318;48.452;19.526;2023-10-13T05:06:00;98512.69;;;20.56;61.66
56414;BME280;42318;48.452;19.526;2023-10-13T05:09:19;98510.47;;;20.53;61.97
56414;BME280;42318;48.452;19.526;2023-10-13T05:12:42;98514.00;;;20.53;61.79
56414;BME280;42318;48.452;19.526;2023-10-13T05:16:01;98517.28;;;20.55;61.88
56414;BME280;42318;48.452;19.526;2023-10-13T05:19:21;98515.09;;;20.52;62.01
56414;BME280;42318;48.452;19.526;2023-10-13T05:22:40;98508.56;;;20.53;61.95
56414;BME280;42318;48.452;19.526;2023-10-13T05:26:01;98521.09;;;20.54;62.07
56414;BME280;42318;48.452;19.526;2023-10-13T05:29:21;98530.09;;;20.55;61.87
56414;BME280;42318;48.452;19.526;2023-10-13T05:32:40;98528.69;;;20.52;61.59
56414;BME280;42318;48.452;19.526;2023-10-13T05:35:59;98532.00;;;20.54;61.60
56414;BME280;42318;48.452;19.526;2023-10-13T05:39:18;98537.13;;;20.51;61.88
56414;BME280;42318;48.452;19.526;2023-10-13T05:42:37;98543.69;;;20.55;61.62
56414;BME280;42318;48.452;19.526;2023-10-13T05:46:01;98552.69;;;20.55;61.60
56414;BME280;42318;48.452;19.526;2023-10-13T05:49:20;98554.59;;;20.55;61.84
56414;BME280;42318;48.452;19.526;2023-10-13T05:52:41;98560.84;;;20.55;61.53
56414;BME280;42318;48.452;19.526;2023-10-13T05:56:01;98563.56;;;20.55;61.65
56414;BME280;42318;48.452;19.526;2023-10-13T05:59:20;98561.69;;;20.56;61.94
56414;BME280;42318;48.452;19.526;2023-10-13T06:02:39;98563.31;;;20.57;61.80
56414;BME280;42318;48.452;19.526;2023-10-13T06:05:58;98572.31;;;20.57;61.80
56414;BME280;42318;48.452;19.526;2023-10-13T06:09:18;98593.25;;;20.57;61.68
56414;BME280;42318;48.452;19.526;2023-10-13T06:12:37;98597.63;;;20.58;61.80
56414;BME280;42318;48.452;19.526;2023-10-13T06:15:56;98588.38;;;20.59;61.56
56414;BME280;42318;48.452;19.526;2023-10-13T06:19:15;98592.19;;;20.58;61.54
56414;BME280;42318;48.452;19.526;2023-10-13T06:22:34;98600.09;;;20.59;61.88
56414;BME280;42318;48.452;19.526;2023-10-13T06:25:53;98605.22;;;20.56;61.89
56414;BME280;42318;48.452;19.526;2023-10-13T06:29:12;98610.16;;;20.59;61.81
56414;BME280;42318;48.452;19.526;2023-10-13T06:32:20;98615.59;;;20.59;61.61
56414;BME280;42318;48.452;19.526;2023-10-13T06:35:25;98618.06;;;20.60;61.52
56414;BME280;42318;48.452;19.526;2023-10-13T06:38:26;98614.53;;;20.60;61.68
56414;BME280;42318;48.452;19.526;2023-10-13T06:41:31;98612.31;;;20.57;61.72
56414;BME280;42318;48.452;19.526;2023-10-13T06:44:32;98612.31;;;20.57;61.83
56414;BME280;42318;48.452;19.526;2023-10-13T06:47:32;98617.81;;;20.62;61.96
56414;BME280;42318;48.452;19.526;2023-10-13T06:50:33;98615.09;;;20.62;61.89
56414;BME280;42318;48.452;19.526;2023-10-13T06:53:39;98612.94;;;20.64;61.87
56414;BME280;42318;48.452;19.526;2023-10-13T06:56:47;98612.09;;;20.63;61.85
56414;BME280;42318;48.452;19.526;2023-10-13T06:59:51;98619.19;;;20.64;61.77
56414;BME280;42318;48.452;19.526;2023-10-13T07:02:54;98618.38;;;20.64;61.79
56414;BME280;42318;48.452;19.526;2023-10-13T07:06:05;98609.69;;;20.67;61.61
56414;BME280;42318;48.452;19.526;2023-10-13T07:09:11;98621.16;;;20.69;61.62
56414;BME280;42318;48.452;19.526;2023-10-13T07:12:32;98619.81;;;20.72;61.94
56414;BME280;42318;48.452;19.526;2023-10-13T07:15:34;98619.81;;;20.72;61.80
56414;BME280;42318;48.452;19.526;2023-10-13T07:18:43;98607.84;;;20.73;61.73
56414;BME280;42318;48.452;19.526;2023-10-13T07:22:00;98602.13;;;20.74;61.89
56414;BME280;42318;48.452;19.526;2023-10-13T07:25:19;98595.03;;;20.73;61.95
56414;BME280;42318;48.452;19.526;2023-10-13T07:28:25;98605.41;;;20.76;61.88
56414;BME280;42318;48.452;19.526;2023-10-13T07:31:25;98607.88;;;20.78;61.65
56414;BME280;42318;48.452;19.526;2023-10-13T07:34:27;98603.81;;;20.80;61.50
56414;BME280;42318;48.452;19.526;2023-10-13T07:37:32;98603.59;;;20.82;61.61
56414;BME280;42318;48.452;19.526;2023-10-13T07:40:33;98596.25;;;20.82;61.55
56414;BME280;42318;48.452;19.526;2023-10-13T07:43:34;98603.34;;;20.83;61.60
56414;BME280;42318;48.452;19.526;2023-10-13T07:46:34;98598.97;;;20.82;61.50
56414;BME280;42318;48.452;19.526;2023-10-13T07:49:37;98596.81;;;20.84;61.80
56414;BME280;42318;48.452;19.526;2023-10-13T07:52:38;98598.44;;;20.85;61.42
56414;BME280;42318;48.452;19.526;2023-10-13T07:55:54;98589.97;;;20.82;61.76
56414;BME280;42318;48.452;19.526;2023-10-13T07:59:03;98600.63;;;20.83;61.50
56414;BME280;42318;48.452;19.526;2023-10-13T08:02:06;98606.09;;;20.88;61.63
56414;BME280;42318;48.452;19.526;2023-10-13T08:05:12;98594.66;;;20.86;61.49
56414;BME280;42318;48.452;19.526;2023-10-13T08:08:16;98588.63;;;20.84;61.73
56414;BME280;42318;48.452;19.526;2023-10-13T08:11:17;98598.19;;;20.87;61.49
56414;BME280;42318;48.452;19.526;2023-10-13T08:14:24;98592.78;;;20.92;61.69
56414;BME280;42318;48.452;19.526;2023-10-13T08:17:29;98595.25;;;20.93;61.52
56414;BME280;42318;48.452;19.526;2023-10-13T08:20:31;98598.53;;;20.95;61.31
56414;BME280;42318;48.452;19.526;2023-10-13T08:23:38;98596.91;;;20.94;61.59
56414;BME280;42318;48.452;19.526;2023-10-13T08:26:54;98594.72;;;20.96;61.27
56414;BME280;42318;48.452;19.526;2023-10-13T08:30:13;98603.72;;;20.97;61.55
56414;BME280;42318;48.452;19.526;2023-10-13T08:33:42;98601.81;;;20.97;61.58
56414;BME280;42318;48.452;19.526;2023-10-13T08:36:47;98603.47;;;20.98;61.28
56414;BME280;42318;48.452;19.526;2023-10-13T08:39:54;98607.84;;;20.99;61.33
56414;BME280;42318;48.452;19.526;2023-10-13T08:43:01;98597.50;;;21.01;61.41
56414;BME280;42318;48.452;19.526;2023-10-13T08:46:03;98606.22;;;21.04;61.50
56414;BME280;42318;48.452;19.526;2023-10-13T08:49:07;98613.31;;;21.05;61.57
56414;BME280;42318;48.452;19.526;2023-10-13T08:52:15;98614.16;;;21.05;61.26
56414;BME280;42318;48.452;19.526;2023-10-13T08:55:45;98609.50;;;21.06;61.31
56414;BME280;42318;48.452;19.526;2023-10-13T08:59:04;98605.72;;;21.07;61.20
56414;BME280;42318;48.452;19.526;2023-10-13T09:02:15;98605.44;;;21.08;61.26
56414;BME280;42318;48.452;19.526;2023-10-13T09:05:19;98601.34;;;21.06;61.05
56414;BME280;42318;48.452;19.526;2023-10-13T09:08:38;98613.38;;;21.10;61.10
56414;BME280;42318;48.452;19.526;2023-10-13T09:12:12;98609.28;;;21.12;61.21
56414;BME280;42318;48.452;19.526;2023-10-13T09:15:13;98616.38;;;21.13;61.27
56414;BME280;42318;48.452;19.526;2023-10-13T09:18:23;98606.31;;;21.14;61.58
56414;BME280;42318;48.452;19.526;2023-10-13T09:21:39;98598.44;;;21.17;61.53
56414;BME280;42318;48.452;19.526;2023-10-13T09:24:42;98601.16;;;21.17;61.58
56414;BME280;42318;48.452;19.526;2023-10-13T09:27:43;98594.59;;;21.13;61.66
56414;BME280;42318;48.452;19.526;2023-10-13T09:30:54;98599.56;;;21.21;61.57
56414;BME280;42318;48.452;19.526;2023-10-13T09:33:59;98594.69;;;21.23;61.51
56414;BME280;42318;48.452;19.526;2023-10-13T09:37:01;98600.97;;;21.24;61.59
56414;BME280;42318;48.452;19.526;2023-10-13T09:40:04;98591.75;;;21.25;61.51
56414;BME280;42318;48.452;19.526;2023-10-13T09:43:26;98601.56;;;21.26;61.33
56414;BME280;42318;48.452;19.526;2023-10-13T09:46:30;98599.31;;;21.23;61.50
56414;BME280;42318;48.452;19.526;2023-10-13T09:49:32;98606.75;;;21.27;61.15
56414;BME280;42318;48.452;19.526;2023-10-13T09:52:45;98592.03;;;21.28;61.35
56414;BME280;42318;48.452;19.526;2023-10-13T09:56:06;98594.50;;;21.30;61.18
56414;BME280;42318;48.452;19.526;2023-10-13T09:59:39;98602.41;;;21.31;61.21
56414;BME280;42318;48.452;19.526;2023-10-13T10:02:44;98591.50;;;21.31;61.27
56414;BME280;42318;48.452;19.526;2023-10-13T10:06:20;98590.16;;;21.34;61.16
56414;BME280;42318;48.452;19.526;2023-10-13T10:09:32;98576.53;;;21.34;61.27
56414;BME280;42318;48.452;19.526;2023-10-13T10:12:59;98587.44;;;21.34;60.95
56414;BME280;42318;48.452;19.526;2023-10-13T10:16:11;98565.13;;;21.37;61.43
56414;BME280;42318;48.452;19.526;2023-10-13T10:19:15;98558.28;;;21.35;61.09
56414;BME280;42318;48.452;19.526;2023-10-13T10:22:32;98557.50;;;21.39;61.42
56414;BME280;42318;48.452;19.526;2023-10-13T10:25:45;98546.56;;;21.34;61.19
56414;BME280;42318;48.452;19.526;2023-10-13T10:28:47;98554.50;;;21.41;61.35
56414;BME280;42318;48.452;19.526;2023-10-13T10:31:48;98539.78;;;21.42;61.36
56414;BME280;42318;48.452;19.526;2023-10-13T10:34:49;98534.88;;;21.39;60.99
56414;BME280;42318;48.452;19.526;2023-10-13T10:37:50;98540.34;;;21.44;61.39
56414;BME280;42318;48.452;19.526;2023-10-13T10:40:53;98537.88;;;21.42;61.29
56414;BME280;42318;48.452;19.526;2023-10-13T10:43:57;98531.34;;;21.43;61.48
56414;BME280;42318;48.452;19.526;2023-10-13T10:47:13;98538.44;;;21.44;61.27
56414;BME280;42318;48.452;19.526;2023-10-13T10:50:26;98532.47;;;21.47;61.67
56414;BME280;42318;48.452;19.526;2023-10-13T10:53:35;98533.28;;;21.48;61.39
56414;BME280;42318;48.452;19.526;2023-10-13T10:56:46;98535.19;;;21.47;61.99
56414;BME280;42318;48.452;19.526;2023-10-13T10:59:52;98531.94;;;21.50;61.93
56414;BME280;42318;48.452;19.526;2023-10-13T11:03:10;98515.56;;;21.50;62.22
56414;BME280;42318;48.452;19.526;2023-10-13T11:06:12;98508.75;;;21.48;61.88
56414;BME280;42318;48.452;19.526;2023-10-13T11:12:26;98500.31;;;21.54;61.81
56414;BME280;42318;48.452;19.526;2023-10-13T11:15:29;98507.44;;;21.60;62.08
56414;BME280;42318;48.452;19.526;2023-10-13T11:18:35;98503.63;;;21.61;62.19
56414;BME280;42318;48.452;19.526;2023-10-13T11:21:41;98491.09;;;21.60;62.19
56414;BME280;42318;48.452;19.526;2023-10-13T11:24:42;98484.53;;;21.61;62.20
56414;BME280;42318;48.452;19.526;2023-10-13T11:27:43;98487.00;;;21.63;62.25
56414;BME280;42318;48.452;19.526;2023-10-13T11:30:50;98497.63;;;21.64;62.41
56414;BME280;42318;48.452;19.526;2023-10-13T11:33:50;98493.00;;;21.65;62.41
56414;BME280;42318;48.452;19.526;2023-10-13T11:36:56;98492.19;;;21.64;62.51
56414;BME280;42318;48.452;19.526;2023-10-13T11:39:59;98491.09;;;21.66;62.57
56414;BME280;42318;48.452;19.526;2023-10-13T11:42:59;98486.72;;;21.64;62.18
56414;BME280;42318;48.452;19.526;2023-10-13T11:46:01;98486.72;;;21.64;62.48
56414;BME280;42318;48.452;19.526;2023-10-13T11:49:11;98481.28;;;21.64;62.77
56414;BME280;42318;48.452;19.526;2023-10-13T11:52:32;98481.53;;;21.63;62.45
56414;BME280;42318;48.452;19.526;2023-10-13T11:55:33;98478.00;;;21.62;62.12
56414;BME280;42318;48.452;19.526;2023-10-13T11:58:34;98480.72;;;21.62;62.44
56414;BME280;42318;48.452;19.526;2023-10-13T12:01:34;98477.19;;;21.62;62.03
56414;BME280;42318;48.452;19.526;2023-10-13T12:04:54;98476.38;;;21.61;62.10
56414;BME280;42318;48.452;19.526;2023-10-13T12:07:57;98476.38;;;21.61;62.26
56414;BME280;42318;48.452;19.526;2023-10-13T12:11:04;98464.63;;;21.61;62.30
56414;BME280;42318;48.452;19.526;2023-10-13T12:14:24;98472.53;;;21.62;61.94
56414;BME280;42318;48.452;19.526;2023-10-13T12:17:30;98470.09;;;21.61;61.97
56414;BME280;42318;48.452;19.526;2023-10-13T12:20:36;98461.34;;;21.59;62.12
56414;BME280;42318;48.452;19.526;2023-10-13T12:23:38;98464.91;;;21.59;61.59
56414;BME280;42318;48.452;19.526;2023-10-13T12:26:39;98465.16;;;21.58;61.78
56414;BME280;42318;48.452;19.526;2023-10-13T12:29:43;98480.19;;;21.60;62.18
56414;BME280;42318;48.452;19.526;2023-10-13T12:32:46;98469.53;;;21.59;62.13
56414;BME280;42318;48.452;19.526;2023-10-13T12:35:59;98474.72;;;21.60;61.95
56414;BME280;42318;48.452;19.526;2023-10-13T12:39:31;98474.72;;;21.60;61.88
56414;BME280;42318;48.452;19.526;2023-10-13T12:42:51;98470.34;;;21.59;62.00
56414;BME280;42318;48.452;19.526;2023-10-13T12:46:10;98449.63;;;21.58;62.23
56414;BME280;42318;48.452;19.526;2023-10-13T12:49:29;98454.84;;;21.65;62.60
56414;BME280;42318;48.452;19.526;2023-10-13T12:52:48;98465.47;;;21.67;63.12
56414;BME280;42318;48.452;19.526;2023-10-13T12:55:48;98455.97;;;21.69;63.09
56414;BME280;42318;48.452;19.526;2023-10-13T12:58:52;98450.78;;;21.73;63.37
56414;BME280;42318;48.452;19.526;2023-10-13T13:01:53;98460.63;;;21.74;63.84
56414;BME280;42318;48.452;19.526;2023-10-13T13:04:56;98457.34;;;21.77;63.93
56414;BME280;42318;48.452;19.526;2023-10-13T13:08:17;98454.09;;;21.80;63.87
56414;BME280;42318;48.452;19.526;2023-10-13T13:11:23;98448.09;;;21.78;63.55
56414;BME280;42318;48.452;19.526;2023-10-13T13:14:25;98445.09;;;21.79;63.24
56414;BME280;42318;48.452;19.526;2023-10-13T13:17:38;98422.44;;;21.79;63.12
56414;BME280;42318;48.452;19.526;2023-10-13T13:20:39;98437.44;;;21.81;63.12
56414;BME280;42318;48.452;19.526;2023-10-13T13:23:39;98433.91;;;21.81;62.59
56414;BME280;42318;48.452;19.526;2023-10-13T13:26:40;98433.91;;;21.81;62.49
56414;BME280;42318;48.452;19.526;2023-10-13T13:29:41;98425.72;;;21.81;62.80
56414;BME280;42318;48.452;19.526;2023-10-13T13:32:42;98420.81;;;21.83;62.79
56414;BME280;42318;48.452;19.526;2023-10-13T13:35:42;98428.44;;;21.81;62.53
56414;BME280;42318;48.452;19.526;2023-10-13T13:38:43;98431.19;;;21.81;62.49
56414;BME280;42318;48.452;19.526;2023-10-13T13:41:49;98414.00;;;21.80;62.28
56414;BME280;42318;48.452;19.526;2023-10-13T13:44:51;98421.34;;;21.80;62.33
56414;BME280;42318;48.452;19.526;2023-10-13T13:47:52;98415.09;;;21.79;62.03
56414;BME280;42318;48.452;19.526;2023-10-13T13:50:56;98423.28;;;21.79;62.13
56414;BME280;42318;48.452;19.526;2023-10-13T13:54:04;98412.63;;;21.78;62.08
56414;BME280;42318;48.452;19.526;2023-10-13T13:57:07;98412.06;;;21.76;62.22
56414;BME280;42318;48.452;19.526;2023-10-13T14:00:08;98428.44;;;21.76;61.88
56414;BME280;42318;48.452;19.526;2023-10-13T14:03:10;98419.72;;;21.74;61.95
56414;BME280;42318;48.452;19.526;2023-10-13T14:06:15;98419.72;;;21.74;62.01
56414;BME280;42318;48.452;19.526;2023-10-13T14:09:23;98415.63;;;21.71;62.21
56414;BME280;42318;48.452;19.526;2023-10-13T14:12:32;98415.91;;;21.75;62.22
56414;BME280;42318;48.452;19.526;2023-10-13T14:15:42;98426.81;;;21.75;61.99
56414;BME280;42318;48.452;19.526;2023-10-13T14:18:47;98434.16;;;21.74;61.94
56414;BME280;42318;48.452;19.526;2023-10-13T14:21:48;98422.72;;;21.72;61.97
56414;BME280;42318;48.452;19.526;2023-10-13T14:24:53;98424.34;;;21.73;61.99
56414;BME280;42318;48.452;19.526;2023-10-13T14:27:57;98435.53;;;21.72;61.81
56414;BME280;42318;48.452;19.526;2023-10-13T14:30:58;98416.44;;;21.72;61.63
56414;BME280;42318;48.452;19.526;2023-10-13T14:33:59;98427.34;;;21.72;61.81
56414;BME280;42318;48.452;19.526;2023-10-13T14:37:00;98432.78;;;21.72;61.88
56414;BME280;42318;48.452;19.526;2023-10-13T14:40:01;98418.88;;;21.73;61.74
56414;BME280;42318;48.452;19.526;2023-10-13T14:43:01;98423.53;;;21.73;62.06
56414;BME280;42318;48.452;19.526;2023-10-13T14:46:08;98416.44;;;21.72;61.71
56414;BME280;42318;48.452;19.526;2023-10-13T14:49:08;98421.06;;;21.71;61.95
56414;BME280;42318;48.452;19.526;2023-10-13T14:52:10;98420.25;;;21.71;61.67
56414;BME280;42318;48.452;19.526;2023-10-13T14:55:10;98421.06;;;21.71;61.73
56414;BME280;42318;48.452;19.526;2023-10-13T14:58:20;98414.53;;;21.72;61.68
56414;BME280;42318;48.452;19.526;2023-10-13T15:01:26;98418.34;;;21.71;61.68
56414;BME280;42318;48.452;19.526;2023-10-13T15:04:28;98417.53;;;21.71;62.05
56414;BME280;42318;48.452;19.526;2023-10-13T15:07:32;98412.06;;;21.71;61.74
56414;BME280;42318;48.452;19.526;2023-10-13T15:10:33;98410.16;;;21.71;61.75
56414;BME280;42318;48.452;19.526;2023-10-13T15:13:36;98417.53;;;21.71;62.08
56414;BME280;42318;48.452;19.526;2023-10-13T15:16:38;98413.66;;;21.67;61.79
56414;BME280;42318;48.452;19.526;2023-10-13T15:19:38;98416.44;;;21.72;61.73
56414;BME280;42318;48.452;19.526;2023-10-13T15:22:39;98419.16;;;21.72;62.02
56414;BME280;42318;48.452;19.526;2023-10-13T15:25:39;98423.53;;;21.73;62.08
56414;BME280;42318;48.452;19.526;2023-10-13T15:28:49;98422.72;;;21.72;61.93
56414;BME280;42318;48.452;19.526;2023-10-13T15:31:53;98419.72;;;21.74;62.08
56414;BME280;42318;48.452;19.526;2023-10-13T15:35:00;98413.44;;;21.73;61.84
56414;BME280;42318;48.452;19.526;2023-10-13T15:38:00;98411.53;;;21.74;62.06
56414;BME280;42318;48.452;19.526;2023-10-13T15:41:02;98409.06;;;21.72;61.95
56414;BME280;42318;48.452;19.526;2023-10-13T15:44:04;98414.25;;;21.74;62.00
56414;BME280;42318;48.452;19.526;2023-10-13T15:47:10;98410.16;;;21.71;62.10
56414;BME280;42318;48.452;19.526;2023-10-13T15:50:14;98415.06;;;21.74;61.93
56414;BME280;42318;48.452;19.526;2023-10-13T15:53:21;98424.06;;;21.75;62.28
56414;BME280;42318;48.452;19.526;2023-10-13T15:56:25;98424.91;;;21.75;62.11
56414;BME280;42318;48.452;19.526;2023-10-13T15:59:26;98417.53;;;21.76;62.15
56414;BME280;42318;48.452;19.526;2023-10-13T16:02:26;98430.91;;;21.77;61.99
56414;BME280;42318;48.452;19.526;2023-10-13T16:05:32;98421.91;;;21.77;62.33
56414;BME280;42318;48.452;19.526;2023-10-13T16:08:34;98427.34;;;21.77;62.32
56414;BME280;42318;48.452;19.526;2023-10-13T16:11:35;98426.25;;;21.78;62.17
56414;BME280;42318;48.452;19.526;2023-10-13T16:14:35;98427.91;;;21.79;62.49
56414;BME280;42318;48.452;19.526;2023-10-13T16:17:36;98422.44;;;21.79;62.13
56414;BME280;42318;48.452;19.526;2023-10-13T16:20:40;98423.00;;;21.76;62.18
56414;BME280;42318;48.452;19.526;2023-10-13T16:23:41;98444.81;;;21.81;62.41